createdAt,value
2022-09-05T00:03:05.356Z,57.37
2022-09-05T00:08:42.440Z,57.70
2022-09-05T00:15:14.893Z,57.80
2022-09-05T00:24:18.813Z,56.63
2022-09-05T00:25:41.075Z,57.30
2022-09-05T00:31:54.634Z,57.03
2022-09-05T00:36:49.699Z,55.43
2022-09-05T00:42:15.390Z,57.07
2022-09-05T00:47:40.608Z,54.77
2022-09-05T00:53:16.216Z,56.27
2022-09-05T00:58:45.256Z,55.83
2022-09-05T01:04:22.727Z,56.47
2022-09-05T01:09:54.036Z,55.58
2022-09-05T01:15:46.249Z,55.07
2022-09-05T01:21:14.656Z,57.10
2022-09-05T01:27:12.185Z,56.40
2022-09-05T01:38:19.230Z,55.52
2022-09-05T01:43:53.222Z,54.47
2022-09-05T01:49:20.267Z,54.77
2022-09-05T01:55:14.399Z,54.90
2022-09-05T02:01:27.019Z,54.60
2022-09-05T02:06:37.453Z,55.23
2022-09-05T02:12:11.006Z,54.60
2022-09-05T02:17:50.597Z,54.25
2022-09-05T02:23:40.639Z,54.30
2022-09-05T02:28:57.198Z,54.57
2022-09-05T02:34:40.794Z,54.30
2022-09-05T02:45:03.377Z,55.57
2022-09-05T02:46:05.546Z,55.17
2022-09-05T02:57:34.044Z,55.20
2022-09-05T02:57:46.440Z,55.50
2022-09-05T03:02:39.609Z,54.63
2022-09-05T03:08:22.944Z,54.60
2022-09-05T03:14:00.846Z,54.60
2022-09-05T03:19:29.212Z,55.95
2022-09-05T03:25:13.851Z,55.03
2022-09-05T03:30:50.973Z,54.90
2022-09-05T03:36:32.618Z,54.40
2022-09-05T03:41:57.947Z,54.47
2022-09-05T03:47:52.681Z,54.43
2022-09-05T03:57:27.375Z,54.90
2022-09-05T03:59:08.822Z,54.87
2022-09-05T04:08:15.791Z,54.75
2022-09-05T04:10:09.916Z,55.13
2022-09-05T04:15:41.118Z,55.57
2022-09-05T04:21:09.254Z,54.93
2022-09-05T04:26:50.916Z,54.10
2022-09-05T04:32:37.763Z,55.73
2022-09-05T04:38:18.418Z,55.67
2022-09-05T04:43:55.655Z,55.43
2022-09-05T04:49:24.755Z,55.30
2022-09-05T04:54:50.477Z,55.70
2022-09-05T05:05:58.506Z,55.85
2022-09-05T05:06:12.234Z,56.33
2022-09-05T05:17:59.475Z,55.33
2022-09-05T05:18:14.999Z,55.67
2022-09-05T05:23:07.931Z,57.67
2022-09-05T05:28:39.421Z,56.43
2022-09-05T05:34:09.770Z,56.87
2022-09-05T05:39:31.203Z,57.87
2022-09-05T05:44:57.975Z,58.67
2022-09-05T05:50:29.602Z,58.07
2022-09-05T05:56:09.782Z,58.77
2022-09-05T06:01:41.990Z,60.45
2022-09-05T06:07:30.413Z,60.03
2022-09-05T06:15:03.766Z,62.83
2022-09-05T06:19:19.317Z,65.83
2022-09-05T06:25:17.873Z,62.00
2022-09-05T06:31:31.440Z,60.83
2022-09-05T06:37:06.739Z,60.27
2022-09-05T06:42:42.713Z,61.37
2022-09-05T06:48:14.488Z,56.77
2022-09-05T06:53:50.333Z,57.50
2022-09-05T06:59:49.410Z,56.55
2022-09-05T07:05:40.354Z,57.67
2022-09-05T07:11:16.882Z,58.33
2022-09-05T07:16:44.970Z,58.05
2022-09-05T07:22:39.281Z,57.90
2022-09-05T07:28:26.041Z,59.57
2022-09-05T07:33:11.823Z,58.63
2022-09-05T07:38:52.063Z,59.37
2022-09-05T07:44:07.277Z,59.03
2022-09-05T07:49:31.125Z,58.90
2022-09-05T07:57:01.035Z,60.30
2022-09-05T08:00:27.064Z,58.33
2022-09-05T08:05:58.173Z,59.10
2022-09-05T08:11:26.239Z,59.87
2022-09-05T08:16:48.487Z,59.35
2022-09-05T08:22:14.456Z,59.93
2022-09-05T08:27:56.769Z,59.80
2022-09-05T08:33:24.936Z,57.70
2022-09-05T08:38:47.887Z,59.80
2022-09-05T08:46:39.702Z,59.30
2022-09-05T08:49:55.229Z,59.57
2022-09-05T08:55:40.373Z,58.90
2022-09-05T09:01:15.864Z,59.03
2022-09-05T09:07:27.831Z,59.10
2022-09-05T09:12:31.025Z,59.30
2022-09-05T09:17:56.149Z,59.50
2022-09-05T09:23:31.783Z,59.00
2022-09-05T09:29:09.698Z,59.37
2022-09-05T09:34:47.145Z,59.57
2022-09-05T09:40:09.870Z,58.17
2022-09-05T09:45:55.113Z,58.92
2022-09-05T09:51:30.419Z,59.15
2022-09-05T09:57:22.697Z,58.83
2022-09-05T10:04:52.885Z,58.60
2022-09-05T10:10:45.725Z,59.10
2022-09-05T10:14:56.893Z,58.20
2022-09-05T10:20:37.266Z,58.90
2022-09-05T10:26:15.407Z,58.70
2022-09-05T10:35:09.427Z,59.53
2022-09-05T10:37:29.394Z,59.07
2022-09-05T10:43:00.833Z,59.47
2022-09-05T10:48:40.546Z,59.90
2022-09-05T10:54:08.947Z,59.37
2022-09-05T11:02:15.903Z,59.20
2022-09-05T11:05:11.497Z,59.70
2022-09-05T11:10:45.837Z,59.40
2022-09-05T11:16:23.874Z,60.10
2022-09-05T11:22:13.663Z,60.10
2022-09-05T11:27:43.707Z,59.13
2022-09-05T11:39:58.952Z,59.42
2022-09-05T11:45:20.336Z,58.57
2022-09-05T11:51:04.069Z,59.83
2022-09-05T11:56:32.470Z,59.77
2022-09-05T12:02:16.714Z,59.63
2022-09-05T12:07:47.765Z,60.30
2022-09-05T12:13:29.174Z,60.47
2022-09-05T12:19:19.860Z,59.95
2022-09-05T12:25:24.806Z,60.03
2022-09-05T12:30:53.055Z,59.70
2022-09-05T12:39:21.500Z,60.57
2022-09-05T12:42:13.830Z,60.93
2022-09-05T12:47:21.280Z,61.77
2022-09-05T12:52:47.205Z,61.60
2022-09-05T13:02:56.640Z,61.13
2022-09-05T13:04:16.646Z,60.97
2022-09-05T13:09:49.171Z,61.07
2022-09-05T13:15:14.073Z,61.97
2022-09-05T13:20:30.861Z,61.80
2022-09-05T13:26:04.176Z,60.47
2022-09-05T13:38:02.724Z,60.78
2022-09-05T13:38:29.180Z,60.90
2022-09-05T13:43:13.733Z,61.63
2022-09-05T13:54:37.065Z,61.83
2022-09-05T14:00:15.315Z,60.97
2022-09-05T14:05:51.862Z,61.07
2022-09-05T14:11:33.210Z,61.43
2022-09-05T14:23:05.806Z,61.63
2022-09-05T14:28:34.926Z,61.70
2022-09-05T14:37:44.260Z,59.87
2022-09-05T14:39:21.030Z,58.90
2022-09-05T14:44:37.886Z,59.13
2022-09-05T14:49:52.606Z,59.90
2022-09-05T15:02:54.501Z,60.27
2022-09-05T15:05:36.354Z,59.53
2022-09-05T15:12:17.889Z,58.97
2022-09-05T15:16:02.436Z,58.90
2022-09-05T15:21:33.476Z,59.50
2022-09-05T15:26:36.392Z,59.37
2022-09-05T15:31:43.055Z,59.10
2022-09-05T15:36:48.334Z,58.93
2022-09-05T15:41:59.608Z,58.93
2022-09-05T15:47:07.400Z,58.80
2022-09-05T15:52:18.534Z,59.13
2022-09-05T15:57:32.686Z,61.17
2022-09-05T16:02:47.376Z,60.83
2022-09-05T16:10:37.465Z,58.17
2022-09-05T16:13:18.020Z,58.35
2022-09-05T16:23:19.909Z,59.07
2022-09-05T16:23:49.063Z,58.43
2022-09-05T16:29:09.391Z,58.60
2022-09-05T16:34:34.059Z,59.63
2022-09-05T16:39:46.112Z,58.30
2022-09-05T16:45:01.993Z,58.63
2022-09-05T16:50:34.118Z,57.60
2022-09-05T16:55:45.070Z,57.47
2022-09-05T17:01:02.771Z,58.30
2022-09-05T17:06:45.134Z,59.87
2022-09-05T17:12:00.543Z,58.10
2022-09-05T17:17:20.198Z,58.87
2022-09-05T17:27:19.925Z,58.17
2022-09-05T17:29:28.159Z,59.10
2022-09-05T17:32:53.023Z,58.80
2022-09-05T17:38:11.408Z,57.80
2022-09-05T17:43:31.245Z,57.17
2022-09-05T17:49:18.698Z,58.30
2022-09-05T17:54:12.847Z,58.00
2022-09-05T17:59:24.990Z,59.07
2022-09-05T18:04:44.419Z,58.13
2022-09-05T18:10:14.615Z,58.42
2022-09-05T18:15:26.495Z,57.93
2022-09-05T18:20:42.345Z,57.73
2022-09-05T18:26:00.140Z,57.07
2022-09-05T18:31:43.721Z,58.20
2022-09-05T18:36:56.126Z,57.93
2022-09-05T18:42:34.409Z,59.13
2022-09-05T18:47:33.822Z,57.87
2022-09-05T18:52:39.205Z,57.67
2022-09-05T18:57:48.390Z,56.57
2022-09-05T19:02:58.835Z,57.40
2022-09-05T19:08:06.272Z,56.80
2022-09-05T19:13:20.159Z,57.53
2022-09-05T19:18:27.896Z,58.83
2022-09-05T19:23:44.431Z,60.35
2022-09-05T19:36:44.369Z,59.93
2022-09-05T19:36:51.771Z,59.00
2022-09-05T19:44:32.414Z,57.95
2022-09-05T19:47:43.860Z,58.38
2022-09-05T19:50:00.969Z,57.53
2022-09-05T19:55:21.838Z,58.07
2022-09-05T20:00:29.761Z,57.60
2022-09-05T20:05:41.809Z,56.83
2022-09-05T20:10:47.256Z,56.57
2022-09-05T20:15:53.859Z,57.15
2022-09-05T20:21:10.977Z,56.43
2022-09-05T20:26:22.169Z,57.73
2022-09-05T20:31:29.962Z,57.88
2022-09-05T20:43:08.561Z,58.23
2022-09-05T20:43:17.840Z,57.20
2022-09-05T20:50:53.968Z,57.47
2022-09-05T20:54:21.742Z,58.13
2022-09-05T20:57:19.625Z,58.40
2022-09-05T21:02:32.998Z,58.40
2022-09-05T21:07:40.114Z,58.33
2022-09-05T21:12:51.018Z,58.20
2022-09-05T21:18:00.007Z,58.30
2022-09-05T21:23:20.424Z,58.53
2022-09-05T21:28:36.636Z,58.87
2022-09-05T21:33:45.444Z,59.80
2022-09-05T21:38:50.970Z,59.47
2022-09-05T21:47:45.066Z,59.45
2022-09-05T21:49:07.240Z,57.30
2022-09-05T21:59:15.200Z,58.07
2022-09-05T21:59:41.713Z,57.88
2022-09-05T22:04:33.060Z,58.03
2022-09-05T22:09:40.473Z,58.33
2022-09-05T22:14:45.905Z,58.37
2022-09-05T22:19:52.663Z,59.23
2022-09-05T22:25:03.685Z,58.40
2022-09-05T22:30:09.450Z,59.33
2022-09-05T22:35:27.855Z,59.98
2022-09-05T22:40:22.569Z,60.37
2022-09-05T22:45:28.561Z,59.37
2022-09-05T22:55:41.993Z,59.10
2022-09-05T23:00:47.169Z,59.13
2022-09-05T23:05:53.104Z,59.57
2022-09-05T23:10:59.119Z,59.20
2022-09-05T23:16:05.211Z,60.40
2022-09-05T23:21:15.075Z,59.92
2022-09-05T23:26:20.089Z,59.47
2022-09-05T23:31:26.377Z,59.10
2022-09-05T23:36:31.709Z,58.70
2022-09-05T23:41:36.715Z,60.97
2022-09-05T23:46:42.145Z,59.93
2022-09-05T23:51:47.246Z,59.47
2022-09-05T23:56:52.865Z,59.13
